Bei Facebook empfehlenBei Twitter postenGoogle plusPinterest

Das Wetter im Erzgebirge am 12.04.2015

Wetter und Klima am 12.04.2015 Holzhau im Erzgebirge (630m ü.NN)
Letzte gemessene Temperatur und Uhrzeit der Messung23:45:00 Uhr2.70 °C
Temperatur (Maximum / Höchstwert) und Uhrzeit der Messung16:45:00 Uhr14.40 °C
Temperatur (Minimum / Tiefstwert) und Uhrzeit der Messung07:00:001.30 °C
Errechneter Absolutwert der Temperaturschwankungen zwischen Tmin und Tmax des Tages13.10 K
Errechnete Tagesmitteltemperatur8.22083 °C
Gesamt - Niederschlag des Tages (in flüssiger Form)2.07 Liter / m²
Luftdruck (Maximum / Höchstwert) und Zeitpunkt der Messung11:15:00 Uhr1027.30 hPa
Luftdruck (Minimum / Tiefstwert) und Zeitpunkt der Messung00:00:00 Uhr1021.00 hPa
Errechneter Absolutwert der Luftdruckschwankungen des Tages6.30 hPa
Höchste gemessene Windgeschwindigkeit und Uhrzeit der Messung17:30:00 Uhr7.92 km/h
Errechnete Windhäufigkeit in Relation zu den Messwerten des Tages13.54167 %
Niedrigste Windkühle (Windchill) und Zeitpunkt der Messung07:00:00 Uhr1.30 °C
Taupunkt (Maximum / Höchstwert) und Uhrzeit der Messung02:15:00 Uhr6.00 °C
Taupunkt (Minimum / Tiefstwert) und Uhrzeit der Messung06:45:00-0.80 °C
Anzahl der automatisch eingelesenen Messwerte 96

Detaillierte Wetter- und Klima- Messwerte für den 12.04.2015 in Holzhau im Erzgebirge (630m ü.NN)
ZeitTemperaturLuftdruckRel. LuftfeuchteWindWindrichtungWindchillTaupunktNiederschlag l/m²
23:45:002.70 °C1022.50 hPa87.00 %0.80 °C2.07
23:30:002.70 °C1022.50 hPa87.00 %0.80 °C2.07
23:15:002.80 °C1022.70 hPa86.00 %0.70 °C2.07
23:00:002.90 °C1022.60 hPa86.00 %0.80 °C2.07
22:45:003.10 °C1022.70 hPa85.00 %0.80 °C2.07
22:30:003.30 °C1022.70 hPa84.00 %0.90 °C2.07
22:15:003.60 °C1023.10 hPa84.00 %1.20 °C2.07
22:00:004.10 °C1023.10 hPa83.00 %1.50 °C2.07
21:45:004.50 °C1023.20 hPa83.00 %1.90 °C2.07
21:30:004.90 °C1023.30 hPa81.00 %1.90 °C2.07
21:15:005.40 °C1023.30 hPa80.00 %2.20 °C2.07
21:00:005.80 °C1023.30 hPa78.00 %2.30 °C2.07
20:45:006.40 °C1023.30 hPa76.00 %2.50 °C2.07
20:30:007.10 °C1023.40 hPa74.00 %2.80 °C2.07
20:15:007.90 °C1023.40 hPa72.00 %3.20 °C2.07
20:00:009.10 °C1023.60 hPa68.00 %3.50 °C2.07
19:45:0010.20 °C1023.50 hPa65.00 %3.90 °C2.07
19:30:0011.10 °C1023.60 hPa61.00 %3.90 °C2.07
19:15:0011.90 °C1023.70 hPa58.00 %3.90 °C2.07
19:00:0012.70 °C1023.90 hPa57.00 %4.40 °C2.07
18:45:0013.10 °C1023.90 hPa57.00 %2.52 km/hSW13.10 °C4.80 °C2.07
18:30:0013.30 °C1024.10 hPa56.00 %4.70 °C2.07
18:15:0013.50 °C1024.20 hPa55.00 %4.60 °C2.07
18:00:0013.80 °C1024.30 hPa54.00 %7.20 km/hNNW13.60 °C4.70 °C2.07
17:45:0013.90 °C1024.30 hPa54.00 %3.96 km/hW13.90 °C4.80 °C2.07
17:30:0014.00 °C1024.20 hPa53.00 %7.92 km/hWNW13.70 °C4.60 °C2.07
17:15:0013.90 °C1024.30 hPa53.00 %4.50 °C2.07
17:00:0014.30 °C1024.40 hPa51.00 %2.52 km/hW14.30 °C4.30 °C2.07
16:45:0014.40 °C1024.60 hPa51.00 %5.04 km/hWNW14.70 °C4.40 °C2.07
16:30:0014.40 °C1024.60 hPa51.00 %4.40 °C2.07
16:15:0014.40 °C1024.70 hPa51.00 %4.40 °C2.07
16:00:0014.40 °C1025.00 hPa51.00 %4.40 °C2.07
15:45:0014.20 °C1025.10 hPa51.00 %4.20 °C2.07
15:30:0013.90 °C1025.20 hPa52.00 %4.20 °C2.07
15:15:0013.80 °C1025.30 hPa50.00 %3.60 °C2.07
15:00:0013.60 °C1025.60 hPa49.00 %3.10 °C2.07
14:45:0013.20 °C1025.70 hPa51.00 %3.30 °C2.07
14:30:0013.10 °C1025.80 hPa50.00 %2.90 °C2.07
14:15:0013.50 °C1026.10 hPa50.00 %3.30 °C2.07
14:00:0013.20 °C1026.10 hPa51.00 %3.30 °C2.07
13:45:0012.40 °C1026.20 hPa51.00 %4.68 km/hNW12.40 °C2.60 °C2.07
13:30:0012.30 °C1026.20 hPa49.00 %1.90 °C2.07
13:15:0012.30 °C1026.30 hPa49.00 %2.52 km/hWNW12.30 °C1.90 °C2.07
13:00:0011.60 °C1026.60 hPa48.00 %1.00 °C2.07
12:45:0012.20 °C1026.80 hPa45.00 %0.60 °C2.07
12:30:0011.90 °C1026.80 hPa44.00 %0.10 °C2.07
12:15:0011.50 °C1027.10 hPa44.00 %6.12 km/hWNW11.20 °C-0.30 °C2.07
12:00:0011.00 °C1027.20 hPa46.00 %-0.20 °C2.07
11:45:0010.50 °C1027.20 hPa47.00 %-0.30 °C2.07
11:30:0010.10 °C1027.10 hPa50.00 %0.20 °C2.07
11:15:009.80 °C1027.30 hPa52.00 %0.40 °C2.07
11:00:009.20 °C1027.30 hPa53.00 %0.10 °C2.07
10:45:008.80 °C1027.20 hPa56.00 %0.50 °C1.55
10:30:008.10 °C1027.00 hPa58.00 %0.30 °C1.55
10:15:007.60 °C1027.00 hPa62.00 %0.80 °C1.55
10:00:006.80 °C1026.90 hPa69.00 %1.50 °C1.55
09:45:006.10 °C1026.90 hPa71.00 %1.20 °C1.55
09:30:005.60 °C1026.90 hPa76.00 %1.70 °C1.55
09:15:005.10 °C1027.00 hPa78.00 %1.60 °C1.55
09:00:004.50 °C1027.00 hPa80.00 %1.40 °C1.55
08:45:004.40 °C1026.90 hPa82.00 %1.60 °C1.55
08:30:004.20 °C1026.90 hPa86.00 %2.10 °C1.55
08:15:003.60 °C1026.90 hPa87.00 %1.60 °C1.55
08:00:003.50 °C1026.80 hPa89.00 %1.90 °C1.55
07:45:002.70 °C1026.60 hPa89.00 %1.10 °C1.55
07:30:002.00 °C1026.30 hPa88.00 %0.20 °C1.55
07:15:001.60 °C1026.30 hPa88.00 %-0.20 °C1.55
07:00:001.30 °C1026.30 hPa87.00 %-0.60 °C1.55
06:45:001.30 °C1026.10 hPa86.00 %-0.80 °C1.55
06:30:001.80 °C1025.80 hPa86.00 %-0.30 °C1.55
06:15:002.40 °C1025.50 hPa86.00 %0.30 °C1.55
06:00:002.80 °C1025.60 hPa86.00 %0.70 °C1.55
05:45:003.20 °C1025.40 hPa87.00 %1.30 °C1.55
05:30:003.60 °C1025.10 hPa87.00 %1.60 °C1.55
05:15:004.10 °C1025.00 hPa88.00 %2.30 °C1.55
05:00:004.30 °C1025.00 hPa89.00 %2.70 °C1.55
04:45:004.60 °C1024.80 hPa89.00 %0.36 km/hWNW4.60 °C2.90 °C1.55
04:30:005.20 °C1024.60 hPa90.00 %2.88 km/hWNW5.20 °C3.70 °C1.55
04:15:005.60 °C1024.30 hPa89.00 %3.90 °C1.55
04:00:006.20 °C1024.20 hPa89.00 %4.50 °C1.55
03:45:007.20 °C1023.90 hPa88.00 %5.76 km/hNNW6.30 °C5.30 °C1.55
03:30:007.80 °C1023.20 hPa87.00 %5.80 °C1.04
03:15:007.80 °C1022.60 hPa86.00 %5.60 °C 
03:00:007.90 °C1022.50 hPa85.00 %5.50 °C 
02:45:008.10 °C1022.70 hPa85.00 %5.70 °C 
02:30:008.40 °C1022.70 hPa84.00 %5.90 °C 
02:15:008.90 °C1022.70 hPa82.00 %6.00 °C 
02:00:009.30 °C1022.20 hPa80.00 %6.00 °C 
01:45:009.10 °C1022.40 hPa80.00 %5.80 °C 
01:30:009.00 °C1022.20 hPa80.00 %5.70 °C 
01:15:008.90 °C1022.00 hPa81.00 %5.80 °C 
01:00:008.70 °C1021.80 hPa80.00 %5.40 °C 
00:45:008.60 °C1021.50 hPa81.00 %5.40 km/hWNW8.00 °C5.50 °C 
00:30:008.40 °C1021.10 hPa80.00 %5.20 °C 
00:15:008.60 °C1021.10 hPa79.00 %5.20 °C 
00:00:008.60 °C1021.00 hPa79.00 %5.20 °C 

Permanenter Link zu dieser Seite: Wetter im Erzgebirge am 12.04.2015
Performance-Info: Die Erstellung der Seite / Statistik(en) / Tabelle(n) erforderte 5 Datenbankserver-Abfrage(n) und dauerte 134 Millisekunden. (Dieser Messwert ist von der Gesamt-Auslastung des Servers abhängig.)
Erzgebirge - Wetter | Erzgebirge - Wetter (Mobilgeräte) | Komplette Klimadatenbank